Time;durP1;ratioP1;P1;durP2;ratioP2;P2;SDS_P1;SDS_P2;PMS_P1;PMS_P2;Temp;Humidity;BMP_temperature;BMP_pressure;BME280_temperature;BME280_humidity;BME280_pressure;Samples;Min_cycle;Max_cycle;Signal;HPM_P1;HPM_P2
2022/04/30 00:01:51;;;;;;;9.77;5.80;;;14.00;64.90;;;;;;4165079;28;20052;-65
2022/04/30 00:04:17;;;;;;;10.55;5.90;;;14.00;64.90;;;;;;4169652;28;20052;-65
2022/04/30 00:06:40;;;;;;;9.73;6.45;;;14.00;64.90;;;;;;4163895;28;20503;-65
2022/04/30 00:09:04;;;;;;;9.27;6.03;;;14.00;65.00;;;;;;4175086;28;20056;-65
2022/04/30 00:11:27;;;;;;;10.32;6.15;;;13.90;65.00;;;;;;4168881;28;20040;-65
2022/04/30 00:13:50;;;;;;;10.07;5.75;;;13.90;65.00;;;;;;4192568;28;20131;-65
2022/04/30 00:16:13;;;;;;;7.80;5.55;;;13.90;65.90;;;;;;4179407;28;20048;-65
2022/04/30 00:18:37;;;;;;;8.98;6.22;;;13.90;65.00;;;;;;4189347;28;20040;-65
2022/04/30 00:21:01;;;;;;;10.27;5.88;;;13.90;65.10;;;;;;4187734;28;20102;-65
2022/04/30 00:23:24;;;;;;;9.50;5.95;;;13.90;65.10;;;;;;4180096;28;20049;-65
2022/04/30 00:25:49;;;;;;;8.82;5.78;;;13.90;65.10;;;;;;4197361;28;20136;-65
2022/04/30 00:28:12;;;;;;;8.85;6.18;;;13.90;65.20;;;;;;4189374;28;20490;-65
2022/04/30 00:30:36;;;;;;;8.80;5.65;;;13.90;65.20;;;;;;4180661;28;20050;-65
2022/04/30 00:33:09;;;;;;;6.90;6.00;;;13.90;65.30;;;;;;4190988;28;20057;-65
2022/04/30 00:35:32;;;;;;;9.73;6.05;;;13.90;65.40;;;;;;4190427;28;20053;-65
2022/04/30 00:37:59;;;;;;;10.35;5.82;;;13.90;65.40;;;;;;4190499;28;20049;-64
2022/04/30 00:40:22;;;;;;;8.93;5.85;;;13.90;65.40;;;;;;4181896;28;24490;-65
2022/04/30 00:42:49;;;;;;;9.18;5.72;;;13.80;65.40;;;;;;4166199;28;20064;-65
2022/04/30 00:45:13;;;;;;;8.95;5.32;;;13.80;65.50;;;;;;4182369;28;20061;-65
2022/04/30 00:47:36;;;;;;;8.00;6.22;;;13.80;65.50;;;;;;4172795;28;20527;-66
2022/04/30 00:49:59;;;;;;;14.88;6.20;;;13.80;65.60;;;;;;4174499;28;20500;-65
2022/04/30 00:52:25;;;;;;;7.43;6.13;;;13.80;65.60;;;;;;4172114;28;20175;-65
2022/04/30 00:54:54;;;;;;;9.30;5.82;;;13.80;65.60;;;;;;4171316;28;20049;-65
2022/04/30 00:57:23;;;;;;;9.25;5.97;;;13.80;65.60;;;;;;4171339;28;20136;-65
2022/04/30 00:59:52;;;;;;;;;;;13.80;65.80;;;;;;4172798;28;20079;-65
2022/04/30 01:02:21;;;;;;;7.72;5.30;;;13.90;65.80;;;;;;4163342;28;19928;-65
2022/04/30 01:05:04;;;;;;;7.93;5.47;;;13.80;66.00;;;;;;4162994;28;20041;-65
2022/04/30 01:07:29;;;;;;;6.90;6.05;;;13.80;66.00;;;;;;4171201;28;20052;-65
2022/04/30 01:09:55;;;;;;;6.30;4.68;;;13.80;66.10;;;;;;4174148;28;20040;-65
2022/04/30 01:12:17;;;;;;;7.00;5.78;;;13.80;66.20;;;;;;4188093;28;20125;-65
2022/04/30 01:14:45;;;;;;;10.73;5.53;;;13.80;66.50;;;;;;4188257;28;20040;-65
2022/04/30 01:17:13;;;;;;;5.47;4.97;;;13.80;66.70;;;;;;4187391;28;20040;-65
2022/04/30 01:19:42;;;;;;;7.40;5.78;;;13.90;66.80;;;;;;4165917;28;20144;-65
2022/04/30 01:22:18;;;;;;;5.70;4.60;;;13.90;66.60;;;;;;4161883;28;20141;-65
2022/04/30 01:24:44;;;;;;;10.55;5.95;;;13.90;66.50;;;;;;4174063;28;20053;-65
2022/04/30 01:27:09;;;;;;;9.35;5.43;;;13.90;66.30;;;;;;4177635;28;20555;-65
2022/04/30 01:29:33;;;;;;;9.38;5.25;;;13.90;66.30;;;;;;4176065;28;20064;-65
2022/04/30 01:37:27;;;;;;;5.72;5.20;;;14.00;67.20;;;;;;4174156;28;20048;-65
2022/04/30 01:39:57;;;;;;;6.05;4.72;;;13.90;66.30;;;;;;4165562;28;20047;-65
2022/04/30 01:42:22;;;;;;;6.38;4.28;;;13.90;66.30;;;;;;4175503;28;20091;-65
2022/04/30 01:44:46;;;;;;;4.70;4.22;;;13.90;66.30;;;;;;4174410;28;20110;-64
2022/04/30 01:47:16;;;;;;;8.23;4.53;;;13.90;66.40;;;;;;4168674;28;20049;-66
2022/04/30 01:49:40;;;;;;;6.85;4.93;;;13.90;66.40;;;;;;4199361;28;20441;-65
2022/04/30 01:52:08;;;;;;;7.80;4.70;;;13.90;66.50;;;;;;4190315;28;20807;-65
2022/04/30 01:54:31;;;;;;;7.28;4.97;;;13.80;66.40;;;;;;4192273;28;20476;-65
2022/04/30 01:56:55;;;;;;;4.57;4.13;;;13.80;66.50;;;;;;4183243;28;20070;-65
2022/04/30 01:59:22;;;;;;;5.10;4.32;;;13.80;66.50;;;;;;4173294;28;20561;-66
2022/04/30 02:01:51;;;;;;;8.75;5.05;;;13.80;66.40;;;;;;4159717;28;20041;-66
2022/04/30 02:04:19;;;;;;;6.63;4.28;;;13.80;66.50;;;;;;4188030;28;20500;-64
2022/04/30 02:06:53;;;;;;;5.03;4.30;;;13.80;66.50;;;;;;4196368;28;20524;-64
2022/04/30 02:09:20;;;;;;;7.03;5.07;;;13.80;66.60;;;;;;4186040;28;20052;-65
2022/04/30 02:11:44;;;;;;;7.63;4.85;;;13.80;66.60;;;;;;4159987;28;20124;-64
2022/04/30 02:14:11;;;;;;;6.47;4.35;;;13.70;67.60;;;;;;4158033;28;20072;-63
2022/04/30 02:16:42;;;;;;;6.07;4.13;;;13.70;66.80;;;;;;4173862;28;20128;-63
2022/04/30 02:19:08;;;;;;;5.55;4.60;;;13.80;66.90;;;;;;4179897;28;20497;-63
2022/04/30 02:21:36;;;;;;;6.18;4.32;;;13.70;66.90;;;;;;4183261;28;20065;-63
2022/04/30 02:24:01;;;;;;;4.25;3.85;;;13.70;66.90;;;;;;4201314;28;20102;-63
2022/04/30 02:26:27;;;;;;;7.13;4.75;;;13.70;67.00;;;;;;4189714;28;20047;-63
2022/04/30 02:28:50;;;;;;;6.78;4.60;;;13.70;67.10;;;;;;4186098;28;20048;-64
2022/04/30 02:31:31;;;;;;;6.70;4.30;;;13.70;67.10;;;;;;4164747;28;20095;-65
2022/04/30 02:33:58;;;;;;;6.75;4.38;;;13.70;67.40;;;;;;4171387;28;20049;-63
2022/04/30 02:36:25;;;;;;;6.55;4.45;;;13.70;68.60;;;;;;4173135;28;20059;-64
2022/04/30 02:38:54;;;;;;;5.10;4.03;;;13.70;67.70;;;;;;4175640;28;20041;-64
2022/04/30 02:41:21;;;;;;;6.82;4.30;;;13.80;67.60;;;;;;4166030;28;20403;-64
2022/04/30 02:43:45;;;;;;;6.70;4.82;;;13.90;67.40;;;;;;4170200;28;20065;-63
2022/04/30 02:46:09;;;;;;;7.72;4.82;;;14.00;67.10;;;;;;4176334;28;20051;-63
2022/04/30 02:48:34;;;;;;;8.48;4.80;;;14.00;67.00;;;;;;4189317;28;20040;-66
2022/04/30 02:51:00;;;;;;;6.78;4.75;;;14.00;66.90;;;;;;4189423;28;20052;-64
2022/04/30 02:53:23;;;;;;;7.45;4.55;;;14.00;66.80;;;;;;4190235;28;20044;-64
2022/04/30 02:55:47;;;;;;;4.72;4.20;;;14.10;66.70;;;;;;4178952;28;20131;-64
2022/04/30 03:00:54;;;;;;;7.78;4.82;;;14.10;66.70;;;;;;4173926;28;20060;-66
2022/04/30 03:03:25;;;;;;;7.50;4.45;;;14.10;66.70;;;;;;4189303;28;20056;-65
2022/04/30 03:05:53;;;;;;;8.57;5.25;;;14.10;66.70;;;;;;4184229;28;20052;-66
2022/04/30 03:08:20;;;;;;;5.43;4.30;;;14.10;66.70;;;;;;4194004;28;20044;-65
2022/04/30 03:10:45;;;;;;;6.60;5.32;;;14.10;66.70;;;;;;4174833;28;20048;-64
2022/04/30 03:13:09;;;;;;;5.53;4.28;;;14.10;66.80;;;;;;4174059;28;20122;-65
2022/04/30 03:15:34;;;;;;;6.93;4.03;;;14.10;66.80;;;;;;4168833;28;20056;-65
2022/04/30 03:23:21;;;;;;;8.82;4.05;;;14.10;66.80;;;;;;4175179;28;20059;-65
2022/04/30 03:25:45;;;;;;;6.57;4.22;;;14.10;66.80;;;;;;4192404;28;20106;-65
2022/04/30 03:28:11;;;;;;;8.40;4.20;;;14.10;66.80;;;;;;4190003;28;20040;-65
2022/04/30 03:30:36;;;;;;;5.63;4.18;;;14.10;66.70;;;;;;4190627;28;20056;-65
2022/04/30 03:33:00;;;;;;;4.95;4.45;;;14.10;66.70;;;;;;4189971;28;20052;-64
2022/04/30 03:35:24;;;;;;;4.40;4.00;;;14.10;66.70;;;;;;4175564;28;20072;-65
2022/04/30 03:37:51;;;;;;;5.63;4.05;;;14.10;66.80;;;;;;4187303;28;20115;-66
2022/04/30 03:40:17;;;;;;;4.28;3.97;;;14.10;66.80;;;;;;4179151;28;20051;-65
2022/04/30 03:42:42;;;;;;;6.05;4.30;;;14.10;66.90;;;;;;4186521;28;20052;-66
2022/04/30 03:45:06;;;;;;;5.47;4.47;;;14.10;67.10;;;;;;4191637;28;20514;-66
2022/04/30 03:47:29;;;;;;;5.47;4.75;;;14.10;66.90;;;;;;4174443;28;20447;-64
2022/04/30 03:49:52;;;;;;;8.43;4.57;;;14.20;66.90;;;;;;4172364;28;20377;-66
2022/04/30 03:52:15;;;;;;;5.00;4.28;;;14.20;66.80;;;;;;4170576;28;20509;-66
2022/04/30 03:54:39;;;;;;;5.10;4.30;;;14.20;66.70;;;;;;4173794;28;20443;-67
2022/04/30 03:57:07;;;;;;;4.97;4.40;;;14.20;66.60;;;;;;4172420;28;20076;-66
2022/04/30 03:59:33;;;;;;;4.60;4.18;;;14.20;66.60;;;;;;4173400;28;20099;-66
2022/04/30 04:01:56;;;;;;;8.90;3.97;;;14.20;66.60;;;;;;4174237;28;20517;-66
2022/04/30 04:04:23;;;;;;;4.00;3.60;;;14.20;66.60;;;;;;4158654;28;20041;-67
2022/04/30 04:06:47;;;;;;;5.15;4.22;;;14.20;66.50;;;;;;4192842;28;20135;-67
2022/04/30 04:09:10;;;;;;;5.65;4.63;;;14.20;66.50;;;;;;4193045;28;20503;-66
2022/04/30 04:11:37;;;;;;;6.20;3.95;;;14.20;66.60;;;;;;4187906;28;20103;-66
2022/04/30 04:19:32;;;;;;;4.90;3.78;;;14.20;66.70;;;;;;4170160;28;20360;-65
2022/04/30 04:21:56;;;;;;;5.38;4.07;;;14.20;66.70;;;;;;4165069;28;20060;-66
2022/04/30 04:27:17;;;;;;;4.45;4.10;;;14.20;66.90;;;;;;4138610;28;20042;-65
2022/04/30 04:29:42;;;;;;;4.15;3.53;;;14.10;66.90;;;;;;4140412;28;20085;-66
2022/04/30 04:32:09;;;;;;;5.43;3.92;;;14.20;67.00;;;;;;4160544;28;20048;-66
2022/04/30 04:34:32;;;;;;;4.68;3.75;;;14.10;67.00;;;;;;4169519;28;20416;-67
2022/04/30 04:36:55;;;;;;;7.55;3.75;;;14.10;67.20;;;;;;4146752;28;20523;-64
2022/04/30 04:39:20;;;;;;;7.13;4.38;;;14.10;67.20;;;;;;4181554;28;20161;-65
2022/04/30 04:41:49;;;;;;;4.97;4.18;;;14.20;67.00;;;;;;4169680;28;20087;-64
2022/04/30 04:44:13;;;;;;;5.97;3.80;;;14.20;66.90;;;;;;4170442;28;20049;-65
2022/04/30 04:46:41;;;;;;;4.22;3.80;;;14.20;66.70;;;;;;4169725;28;20147;-65
2022/04/30 04:49:07;;;;;;;6.65;4.05;;;14.30;66.60;;;;;;4169665;28;20048;-65
2022/04/30 04:51:32;;;;;;;5.22;4.18;;;14.30;66.60;;;;;;4169512;28;20045;-65
2022/04/30 04:53:56;;;;;;;5.55;4.07;;;14.30;66.60;;;;;;4185165;28;20510;-62
2022/04/30 04:56:20;;;;;;;12.50;4.20;;;14.40;66.40;;;;;;4175329;28;20488;-65
2022/04/30 04:58:46;;;;;;;7.18;4.20;;;14.40;66.60;;;;;;4174158;28;20506;-65
2022/04/30 05:01:09;;;;;;;9.02;4.20;;;14.40;66.40;;;;;;4158030;28;20045;-64
2022/04/30 05:03:37;;;;;;;5.63;4.18;;;14.50;66.40;;;;;;4179647;28;20129;-65
2022/04/30 05:06:00;;;;;;;4.97;3.88;;;14.40;66.20;;;;;;4176521;28;20064;-64
2022/04/30 05:08:23;;;;;;;5.60;4.00;;;14.50;66.30;;;;;;4154754;28;20061;-64
2022/04/30 05:10:49;;;;;;;4.75;4.03;;;14.40;66.20;;;;;;4190725;28;20052;-64
2022/04/30 05:13:13;;;;;;;8.10;4.55;;;14.40;66.20;;;;;;4190573;28;20040;-64
2022/04/30 05:15:37;;;;;;;6.32;4.40;;;14.40;66.20;;;;;;4191135;28;20052;-65
2022/04/30 05:18:02;;;;;;;6.28;4.00;;;14.40;66.20;;;;;;4168298;28;20051;-65
2022/04/30 05:20:32;;;;;;;5.90;3.95;;;14.40;66.30;;;;;;4165620;28;20072;-65
2022/04/30 05:23:06;;;;;;;8.73;4.60;;;14.30;66.60;;;;;;4160833;28;20385;-65
2022/04/30 05:25:31;;;;;;;4.78;4.10;;;14.30;66.70;;;;;;4170880;28;20050;-63
2022/04/30 05:27:56;;;;;;;6.05;4.40;;;14.30;66.80;;;;;;4182190;28;20044;-64
2022/04/30 05:30:25;;;;;;;6.32;4.55;;;14.30;66.90;;;;;;4190467;28;20052;-64
2022/04/30 05:32:49;;;;;;;5.40;4.45;;;14.30;67.00;;;;;;4190123;28;20060;-65
2022/04/30 05:35:13;;;;;;;4.82;4.40;;;14.20;67.00;;;;;;4191041;28;20053;-65
2022/04/30 05:37:41;;;;;;;6.00;4.80;;;14.20;67.10;;;;;;4190356;28;20068;-65
2022/04/30 05:40:07;;;;;;;10.20;4.75;;;14.20;67.20;;;;;;4188106;28;20055;-65
2022/04/30 05:42:31;;;;;;;7.28;4.70;;;14.20;67.30;;;;;;4188409;28;20052;-65
2022/04/30 05:44:55;;;;;;;9.15;4.97;;;14.20;67.30;;;;;;4189780;28;20132;-65
2022/04/30 05:47:25;;;;;;;6.25;4.47;;;14.20;67.40;;;;;;4183218;28;20051;-65
2022/04/30 05:49:52;;;;;;;6.97;5.05;;;14.10;67.50;;;;;;4201142;28;20510;-65
2022/04/30 05:52:19;;;;;;;5.60;5.00;;;14.20;67.60;;;;;;4166259;28;20048;-64
2022/04/30 05:54:46;;;;;;;9.98;4.93;;;14.20;67.50;;;;;;4176176;28;20461;-64
2022/04/30 05:57:10;;;;;;;5.70;4.63;;;14.20;67.30;;;;;;4176954;28;20794;-64
2022/04/30 05:59:40;;;;;;;7.78;4.90;;;14.20;67.40;;;;;;4174603;28;20132;-65
2022/04/30 06:02:04;;;;;;;9.25;5.20;;;14.30;67.50;;;;;;4143860;28;20055;-65
2022/04/30 06:04:34;;;;;;;6.40;4.75;;;14.40;67.40;;;;;;4157886;28;20056;-66
2022/04/30 06:06:59;;;;;;;7.35;4.97;;;14.40;67.20;;;;;;4184911;28;20129;-65
2022/04/30 06:09:22;;;;;;;7.35;5.03;;;14.40;67.10;;;;;;4169343;28;20111;-65
2022/04/30 06:11:48;;;;;;;5.95;4.85;;;14.40;67.00;;;;;;4170158;28;20072;-65
2022/04/30 06:14:13;;;;;;;7.78;5.25;;;14.40;67.00;;;;;;4161950;28;20407;-65
2022/04/30 06:16:39;;;;;;;7.78;5.47;;;14.40;67.00;;;;;;4164779;28;20461;-64
2022/04/30 06:19:06;;;;;;;7.13;5.25;;;14.40;67.00;;;;;;4169551;28;20040;-65
2022/04/30 06:21:35;;;;;;;7.47;4.88;;;14.40;67.10;;;;;;4180089;28;20060;-64
2022/04/30 06:24:06;;;;;;;6.18;5.15;;;14.40;67.10;;;;;;4177784;28;20048;-64
2022/04/30 06:26:32;;;;;;;6.40;5.38;;;14.40;67.00;;;;;;4168258;28;20170;-64
2022/04/30 06:29:01;;;;;;;6.40;5.10;;;14.40;67.50;;;;;;4192546;28;20051;-64
2022/04/30 06:31:24;;;;;;;5.28;4.80;;;14.30;67.70;;;;;;4190520;28;20044;-64
2022/04/30 06:33:48;;;;;;;6.68;5.00;;;14.40;67.90;;;;;;4171744;28;20391;-64
2022/04/30 06:36:15;;;;;;;9.35;4.85;;;14.30;67.90;;;;;;4194578;28;20046;-63
2022/04/30 06:38:39;;;;;;;7.78;5.60;;;14.30;67.80;;;;;;4195750;28;20110;-65
2022/04/30 06:41:03;;;;;;;6.82;4.43;;;14.30;67.90;;;;;;4179526;28;20044;-65
2022/04/30 06:43:32;;;;;;;6.88;4.97;;;14.30;68.10;;;;;;4182344;28;20194;-65
2022/04/30 06:45:57;;;;;;;9.57;5.13;;;14.20;68.10;;;;;;4190073;28;20054;-64
2022/04/30 06:48:22;;;;;;;8.63;4.90;;;14.20;68.10;;;;;;4192697;28;20047;-65
2022/04/30 06:50:50;;;;;;;6.20;4.63;;;14.20;68.20;;;;;;4190533;28;20050;-65
2022/04/30 06:58:44;;;;;;;6.78;4.50;;;14.20;68.30;;;;;;4169894;28;20052;-63
2022/04/30 07:01:37;;;;;;;8.13;3.67;;;14.20;68.30;;;;;;4176149;28;20044;-65
2022/04/30 07:04:04;;;;;;;8.40;4.10;;;14.20;68.20;;;;;;4180570;28;20114;-65
2022/04/30 07:06:27;;;;;;;8.18;4.40;;;14.20;68.20;;;;;;4175475;28;20049;-66
2022/04/30 07:08:50;;;;;;;7.88;4.65;;;14.20;68.30;;;;;;4171130;28;20053;-66
2022/04/30 07:11:13;;;;;;;7.93;4.00;;;14.10;68.30;;;;;;4177962;28;20048;-66
2022/04/30 07:13:39;;;;;;;9.35;4.25;;;14.20;68.40;;;;;;4177337;28;20048;-66
2022/04/30 07:16:04;;;;;;;7.35;3.75;;;14.10;68.40;;;;;;4172105;28;20056;-66
2022/04/30 07:18:28;;;;;;;4.82;3.60;;;14.10;68.30;;;;;;4174331;28;20080;-66
2022/04/30 07:20:56;;;;;;;5.30;3.80;;;14.10;68.30;;;;;;4174409;28;20060;-66
2022/04/30 07:23:19;;;;;;;5.32;4.07;;;14.10;68.30;;;;;;4175950;28;20071;-66
2022/04/30 07:25:42;;;;;;;5.75;3.65;;;14.10;68.20;;;;;;4173950;28;20094;-66
2022/04/30 07:28:05;;;;;;;10.05;4.35;;;14.10;67.90;;;;;;4174659;28;20053;-66
2022/04/30 07:30:29;;;;;;;5.38;3.80;;;14.10;68.10;;;;;;4173702;28;20061;-66
2022/04/30 07:32:51;;;;;;;5.85;4.30;;;14.10;68.00;;;;;;4172915;28;20131;-66
2022/04/30 07:35:19;;;;;;;10.23;4.38;;;14.00;67.90;;;;;;4174708;28;20554;-66
2022/04/30 07:37:42;;;;;;;9.20;4.43;;;14.00;67.90;;;;;;4172424;28;20135;-66
2022/04/30 07:40:08;;;;;;;5.50;4.07;;;14.00;67.90;;;;;;4174940;28;20045;-66
2022/04/30 07:42:30;;;;;;;8.23;4.32;;;14.00;67.90;;;;;;4174185;28;20131;-66
2022/04/30 07:44:59;;;;;;;4.57;4.18;;;14.00;67.80;;;;;;4186402;28;20126;-67
2022/04/30 07:47:27;;;;;;;9.05;4.72;;;14.00;67.80;;;;;;4164878;28;20041;-66
2022/04/30 07:49:50;;;;;;;8.68;5.00;;;14.00;67.80;;;;;;4189234;28;20518;-66
2022/04/30 07:52:16;;;;;;;6.93;4.63;;;14.00;67.80;;;;;;4191791;28;20040;-65
2022/04/30 07:54:42;;;;;;;4.95;4.40;;;13.90;68.00;;;;;;4156743;28;20049;-66
2022/04/30 07:57:07;;;;;;;15.50;5.07;;;13.90;68.00;;;;;;4179841;28;20053;-66
2022/04/30 07:59:30;;;;;;;6.43;4.53;;;13.90;68.10;;;;;;4181718;28;20068;-65
2022/04/30 08:01:53;;;;;;;6.28;4.68;;;13.90;68.20;;;;;;4176632;28;20046;-66
2022/04/30 08:04:16;;;;;;;8.45;5.25;;;13.90;68.30;;;;;;4189001;28;20049;-66
2022/04/30 08:06:39;;;;;;;7.13;4.65;;;13.90;68.10;;;;;;4186013;28;20127;-66
2022/04/30 08:09:06;;;;;;;5.18;4.53;;;13.90;68.20;;;;;;4192038;28;20143;-66
2022/04/30 08:11:32;;;;;;;8.30;4.93;;;13.90;68.40;;;;;;4187057;28;20428;-65
2022/04/30 08:13:55;;;;;;;7.80;4.78;;;13.90;68.40;;;;;;4193296;28;20052;-65
2022/04/30 08:16:22;;;;;;;7.68;5.30;;;13.90;68.40;;;;;;4180192;28;20044;-66
2022/04/30 08:18:48;;;;;;;11.55;5.32;;;13.90;68.30;;;;;;4174911;28;20546;-65
2022/04/30 08:21:10;;;;;;;7.30;5.18;;;13.80;68.30;;;;;;4173889;28;20080;-67
2022/04/30 08:23:36;;;;;;;7.75;5.55;;;13.90;68.40;;;;;;4171272;28;20091;-67
2022/04/30 08:26:01;;;;;;;8.32;4.95;;;13.80;68.40;;;;;;4169849;28;20048;-65
2022/04/30 08:28:29;;;;;;;7.78;4.65;;;13.80;68.50;;;;;;4175384;28;20056;-64
2022/04/30 08:30:58;;;;;;;8.82;5.03;;;13.80;68.60;;;;;;4175420;28;20048;-66
2022/04/30 08:33:27;;;;;;;8.82;4.90;;;13.80;68.70;;;;;;4162327;28;20048;-65
2022/04/30 08:35:56;;;;;;;10.65;5.05;;;13.80;68.70;;;;;;4178333;28;20487;-66
2022/04/30 08:38:24;;;;;;;7.00;4.90;;;13.80;68.70;;;;;;4147637;28;20055;-65
2022/04/30 08:40:51;;;;;;;6.95;4.90;;;13.80;68.70;;;;;;4159254;28;20076;-65
2022/04/30 08:43:22;;;;;;;7.45;4.68;;;13.80;68.60;;;;;;4193301;28;20051;-66
2022/04/30 08:45:49;;;;;;;8.73;4.30;;;13.80;68.20;;;;;;4165540;28;20604;-65
2022/04/30 08:48:16;;;;;;;8.00;4.22;;;13.80;67.80;;;;;;4189093;28;20091;-64
2022/04/30 08:50:41;;;;;;;8.35;4.78;;;13.80;67.90;;;;;;4181750;28;20048;-65
2022/04/30 08:53:08;;;;;;;6.95;4.70;;;13.80;68.20;;;;;;4172439;28;20079;-65
2022/04/30 08:55:33;;;;;;;9.25;4.72;;;13.80;68.20;;;;;;4165402;28;20072;-66
2022/04/30 08:57:59;;;;;;;5.85;4.45;;;13.80;68.20;;;;;;4166361;28;20044;-66
2022/04/30 09:00:27;;;;;;;7.68;4.07;;;13.80;67.80;;;;;;4177001;28;20045;-65
2022/04/30 09:02:51;;;;;;;6.05;4.03;;;13.80;67.40;;;;;;4170417;28;20051;-65
2022/04/30 09:05:17;;;;;;;6.95;3.97;;;13.80;67.40;;;;;;4171437;28;20049;-64
2022/04/30 09:07:40;;;;;;;4.93;3.85;;;13.80;67.00;;;;;;4171615;28;20048;-66
2022/04/30 09:10:05;;;;;;;6.80;4.30;;;13.80;67.00;;;;;;4179705;28;20044;-65
2022/04/30 09:12:29;;;;;;;5.43;4.15;;;13.80;67.20;;;;;;4194870;28;20041;-64
2022/04/30 09:14:53;;;;;;;5.32;4.47;;;13.80;67.30;;;;;;4171454;28;20052;-65
2022/04/30 09:17:22;;;;;;;6.82;4.10;;;13.80;67.30;;;;;;4178084;28;20049;-64
2022/04/30 09:19:52;;;;;;;6.10;4.07;;;13.80;67.30;;;;;;4168217;28;20060;-64
2022/04/30 09:22:29;;;;;;;6.20;3.90;;;13.90;67.30;;;;;;4142365;28;20052;-63
2022/04/30 09:24:56;;;;;;;7.47;3.95;;;13.90;67.50;;;;;;4172276;28;21801;-65
2022/04/30 09:27:44;;;;;;;7.18;4.75;;;13.90;67.50;;;;;;4170110;28;20049;-65
2022/04/30 09:30:19;;;;;;;6.03;4.72;;;13.90;67.30;;;;;;4178254;28;20052;-65
2022/04/30 09:32:57;;;;;;;6.88;4.25;;;13.90;67.30;;;;;;4178179;28;20052;-64
2022/04/30 09:38:13;;;;;;;7.43;4.00;;;13.90;66.50;;;;;;4176106;28;20100;-64
2022/04/30 09:40:56;;;;;;;7.65;4.20;;;13.90;66.40;;;;;;4166987;28;20060;-66
2022/04/30 09:43:31;;;;;;;7.07;4.47;;;13.90;66.60;;;;;;4177670;28;20049;-65
2022/04/30 09:46:03;;;;;;;6.10;4.50;;;13.90;66.40;;;;;;4185137;28;20052;-69
2022/04/30 09:54:01;;;;;;;5.57;3.90;;;13.90;66.70;;;;;;4190987;28;20056;-65
2022/04/30 09:56:36;;;;;;;5.82;4.00;;;13.90;66.80;;;;;;4188580;28;20055;-66
2022/04/30 09:59:05;;;;;;;7.95;4.53;;;13.90;66.70;;;;;;4189657;28;20048;-66
2022/04/30 10:01:33;;;;;;;3.97;3.50;;;13.90;66.80;;;;;;4183187;28;20070;-65
2022/04/30 10:04:08;;;;;;;7.72;3.80;;;13.90;67.10;;;;;;4188389;28;20059;-64
2022/04/30 10:06:44;;;;;;;14.75;5.18;;;13.90;67.10;;;;;;4173865;28;20143;-65
2022/04/30 10:09:16;;;;;;;8.65;4.90;;;13.90;67.20;;;;;;4167784;28;20074;-66
2022/04/30 10:11:52;;;;;;;6.75;4.28;;;13.90;67.50;;;;;;4153701;28;20044;-65
2022/04/30 10:14:31;;;;;;;8.35;4.50;;;13.90;67.50;;;;;;4189704;28;20056;-65
2022/04/30 10:17:16;;;;;;;6.47;4.28;;;13.90;67.40;;;;;;4173168;28;20056;-64
2022/04/30 10:19:46;;;;;;;5.15;3.67;;;13.90;67.30;;;;;;4185124;28;20087;-65
2022/04/30 10:22:18;;;;;;;7.50;4.13;;;13.90;67.00;;;;;;4185043;28;20076;-64
2022/04/30 10:24:50;;;;;;;8.07;4.35;;;13.90;66.90;;;;;;4185563;28;20065;-65
2022/04/30 10:27:20;;;;;;;5.40;4.38;;;13.90;66.90;;;;;;4200342;28;20044;-65
2022/04/30 10:29:59;;;;;;;6.05;3.97;;;13.90;66.80;;;;;;4189664;28;20041;-65
2022/04/30 10:32:31;;;;;;;8.65;4.78;;;13.90;67.00;;;;;;4176789;28;20036;-65
2022/04/30 10:35:04;;;;;;;9.38;4.88;;;13.90;66.90;;;;;;4176500;28;20047;-64
2022/04/30 10:37:31;;;;;;;5.40;4.30;;;13.90;67.20;;;;;;4186923;28;20067;-65
2022/04/30 10:40:02;;;;;;;5.43;3.90;;;13.90;66.60;;;;;;4182010;28;20044;-65
2022/04/30 10:42:31;;;;;;;7.72;4.55;;;13.90;66.60;;;;;;4185905;28;20060;-65
2022/04/30 10:44:58;;;;;;;5.68;4.05;;;13.90;66.50;;;;;;4176001;28;20052;-64
2022/04/30 10:47:28;;;;;;;5.18;4.30;;;13.90;66.70;;;;;;4170681;28;20102;-66
2022/04/30 10:50:02;;;;;;;8.32;4.65;;;13.90;66.70;;;;;;4189423;28;20070;-66
2022/04/30 10:52:32;;;;;;;5.20;4.03;;;13.90;66.50;;;;;;4163676;28;20053;-66
2022/04/30 10:55:03;;;;;;;6.85;4.32;;;13.90;66.60;;;;;;4181081;28;20055;-66
2022/04/30 10:57:30;;;;;;;10.48;7.72;;;13.90;66.80;;;;;;4183951;28;20144;-66
2022/04/30 11:00:04;;;;;;;7.10;5.28;;;14.00;67.00;;;;;;4184287;28;20054;-66
2022/04/30 11:02:37;;;;;;;12.27;8.20;;;14.00;66.80;;;;;;4181935;28;20052;-65
2022/04/30 11:05:04;;;;;;;5.68;5.05;;;14.00;66.80;;;;;;4182982;28;20084;-66
2022/04/30 11:07:30;;;;;;;10.57;7.68;;;14.00;66.80;;;;;;4187131;28;20047;-66
2022/04/30 11:09:58;;;;;;;10.60;7.05;;;14.00;66.50;;;;;;4174442;28;20060;-66
2022/04/30 11:12:27;;;;;;;8.75;6.72;;;14.00;66.80;;;;;;4181132;28;20071;-65
2022/04/30 11:14:56;;;;;;;8.63;5.95;;;14.00;66.90;;;;;;4183919;28;20052;-66
2022/04/30 11:17:24;;;;;;;22.17;14.10;;;14.10;67.00;;;;;;4176270;28;20041;-66
2022/04/30 11:19:49;;;;;;;8.70;4.95;;;14.10;67.10;;;;;;4167963;28;20726;-66
2022/04/30 11:22:17;;;;;;;5.80;4.25;;;14.10;66.90;;;;;;4192219;28;20052;-66
2022/04/30 11:24:44;;;;;;;4.60;3.95;;;14.10;65.50;;;;;;4177206;28;20055;-66
2022/04/30 11:27:12;;;;;;;5.05;3.90;;;14.20;65.00;;;;;;4172672;28;20135;-66
2022/04/30 11:29:49;;;;;;;4.90;3.45;;;14.10;64.90;;;;;;4189682;28;20535;-67
2022/04/30 11:32:24;;;;;;;6.43;3.65;;;14.20;65.30;;;;;;4186433;28;20461;-66
2022/04/30 11:34:48;;;;;;;5.15;3.58;;;14.20;65.30;;;;;;4179713;28;20102;-67
2022/04/30 11:37:15;;;;;;;5.38;3.63;;;14.20;65.50;;;;;;4186855;28;20045;-66
2022/04/30 11:39:41;;;;;;;7.65;3.75;;;14.20;64.70;;;;;;4188060;28;20044;-66
2022/04/30 11:42:05;;;;;;;5.00;3.38;;;14.20;65.00;;;;;;4188762;28;20063;-66
2022/04/30 11:44:31;;;;;;;4.82;3.50;;;14.20;65.10;;;;;;4172024;28;20063;-66
2022/04/30 11:46:55;;;;;;;3.10;2.80;;;14.20;65.00;;;;;;4191235;28;20094;-66
2022/04/30 11:49:23;;;;;;;3.90;3.60;;;14.20;65.10;;;;;;4188694;28;20056;-66
2022/04/30 11:52:06;;;;;;;3.78;3.03;;;14.20;64.90;;;;;;4173019;28;20835;-66
2022/04/30 11:54:37;;;;;;;4.30;3.10;;;14.20;63.60;;;;;;4186706;28;20070;-66
2022/04/30 11:57:05;;;;;;;3.22;3.03;;;14.20;64.00;;;;;;4181071;28;20063;-66
2022/04/30 11:59:31;;;;;;;5.53;3.40;;;14.20;64.30;;;;;;4189393;28;20067;-66
2022/04/30 12:01:57;;;;;;;5.90;3.90;;;14.20;64.40;;;;;;4190338;28;20135;-66
2022/04/30 12:04:23;;;;;;;5.28;3.53;;;14.20;64.20;;;;;;4188639;28;20058;-66
2022/04/30 12:06:46;;;;;;;4.25;3.75;;;14.20;63.90;;;;;;4187481;28;20123;-66
2022/04/30 12:09:17;;;;;;;6.65;4.47;;;14.20;63.80;;;;;;4183677;28;20145;-66
2022/04/30 12:11:47;;;;;;;9.20;4.22;;;14.20;63.90;;;;;;4186761;28;20056;-66
2022/04/30 12:14:13;;;;;;;5.22;4.15;;;14.20;63.90;;;;;;4180976;28;20052;-67
2022/04/30 12:16:39;;;;;;;4.53;3.63;;;14.20;63.70;;;;;;4175854;28;20056;-66
2022/04/30 12:24:43;;;;;;;7.18;3.72;;;14.30;63.70;;;;;;4188723;28;20044;-66
2022/04/30 12:27:23;;;;;;;5.68;4.30;;;14.30;64.00;;;;;;4186716;28;20044;-66
2022/04/30 12:29:49;;;;;;;5.10;4.25;;;14.40;64.10;;;;;;4178542;28;20053;-67
2022/04/30 12:32:17;;;;;;;5.32;3.90;;;14.40;64.40;;;;;;4170526;28;20487;-67
2022/04/30 12:34:45;;;;;;;5.05;3.17;;;14.50;64.00;;;;;;4185318;28;20059;-66
2022/04/30 12:37:10;;;;;;;4.53;3.25;;;14.60;63.40;;;;;;4172491;28;20215;-65
2022/04/30 12:39:33;;;;;;;5.25;3.10;;;14.90;62.60;;;;;;4187866;28;20090;-65
2022/04/30 12:41:58;;;;;;;5.35;3.47;;;15.30;62.20;;;;;;4181396;28;20048;-66
2022/04/30 12:44:24;;;;;;;5.60;3.45;;;15.80;61.00;;;;;;4182775;28;20048;-67
2022/04/30 12:46:54;;;;;;;3.90;3.53;;;16.30;58.40;;;;;;4156662;28;20045;-65
2022/04/30 12:49:24;;;;;;;5.70;3.92;;;16.90;57.10;;;;;;4168400;28;20106;-66
2022/04/30 12:51:51;;;;;;;5.47;3.90;;;17.50;56.10;;;;;;4175376;28;20048;-66
2022/04/30 12:54:16;;;;;;;7.60;3.63;;;17.90;54.20;;;;;;4185229;28;20163;-67
2022/04/30 12:56:40;;;;;;;4.03;3.33;;;18.20;53.60;;;;;;4185281;28;20075;-66
2022/04/30 12:59:06;;;;;;;4.25;2.92;;;18.60;53.20;;;;;;4187318;28;20149;-66
2022/04/30 13:01:33;;;;;;;3.80;3.40;;;18.90;52.30;;;;;;4191139;28;20078;-66
2022/04/30 13:03:56;;;;;;;3.10;2.90;;;19.20;52.10;;;;;;4180914;28;20102;-66
2022/04/30 13:06:22;;;;;;;3.92;3.60;;;19.40;51.20;;;;;;4189601;28;20118;-67
2022/04/30 13:14:11;;;;;;;5.03;3.58;;;19.90;49.20;;;;;;4189938;28;20049;-66
2022/04/30 13:16:38;;;;;;;9.90;3.92;;;20.10;49.30;;;;;;4166841;28;20421;-66
2022/04/30 13:19:02;;;;;;;5.50;3.38;;;20.10;48.80;;;;;;4165619;28;20045;-67
2022/04/30 13:21:27;;;;;;;3.47;3.15;;;20.20;47.80;;;;;;4187656;28;20048;-67
2022/04/30 13:23:52;;;;;;;7.10;3.30;;;20.10;47.70;;;;;;4193486;28;20053;-67
2022/04/30 13:26:20;;;;;;;7.00;3.47;;;20.00;48.10;;;;;;4190712;28;20056;-66
2022/04/30 13:28:46;;;;;;;4.43;2.67;;;19.80;48.70;;;;;;4187297;28;20637;-67
2022/04/30 13:31:10;;;;;;;6.00;3.10;;;19.60;49.00;;;;;;4192283;28;20049;-66